createdAt,value
2022-09-28T00:00:42.087Z,22.77
2022-09-28T00:01:42.138Z,22.36
2022-09-28T00:02:42.174Z,22.12
2022-09-28T00:03:42.052Z,21.89
2022-09-28T00:04:42.018Z,21.58
2022-09-28T00:05:42.053Z,21.44
2022-09-28T00:06:42.058Z,21.31
2022-09-28T00:07:42.014Z,21.14
2022-09-28T00:08:41.998Z,20.93
2022-09-28T00:09:41.978Z,20.77
2022-09-28T00:10:42.016Z,20.73
2022-09-28T00:11:41.947Z,20.60
2022-09-28T00:12:41.936Z,20.46
2022-09-28T00:13:41.935Z,20.40
2022-09-28T00:14:41.917Z,20.32
2022-09-28T00:15:41.907Z,20.26
2022-09-28T00:16:41.988Z,20.19
2022-09-28T00:17:41.931Z,20.21
2022-09-28T00:18:41.865Z,20.15
2022-09-28T00:19:41.844Z,20.11
2022-09-28T00:20:41.864Z,20.19
2022-09-28T00:21:41.863Z,20.15
2022-09-28T00:22:41.813Z,20.17
2022-09-28T00:23:41.823Z,20.15
2022-09-28T00:24:41.794Z,20.26
2022-09-28T00:25:41.776Z,20.21
2022-09-28T00:26:41.796Z,20.30
2022-09-28T00:27:41.759Z,20.38
2022-09-28T00:28:41.750Z,20.48
2022-09-28T00:29:41.726Z,20.62
2022-09-28T00:30:41.721Z,20.68
2022-09-28T00:31:41.739Z,20.81
2022-09-28T00:32:41.737Z,20.81
2022-09-28T00:33:41.694Z,20.87
2022-09-28T00:34:41.677Z,20.75
2022-09-28T00:35:41.665Z,20.68
2022-09-28T00:36:41.681Z,20.66
2022-09-28T00:37:41.679Z,20.56
2022-09-28T00:38:41.640Z,20.54
2022-09-28T00:39:41.616Z,20.50
2022-09-28T00:40:41.656Z,20.46
2022-09-28T00:41:41.595Z,20.46
2022-09-28T00:42:41.611Z,20.46
2022-09-28T00:43:41.597Z,20.34
2022-09-28T00:44:41.569Z,20.32
2022-09-28T00:45:41.562Z,20.25
2022-09-28T00:46:41.553Z,20.23
2022-09-28T00:47:41.556Z,20.17
2022-09-28T00:48:41.515Z,20.11
2022-09-28T00:49:41.523Z,20.17
2022-09-28T00:50:41.491Z,20.21
2022-09-28T00:51:41.480Z,20.17
2022-09-28T00:52:41.542Z,20.26
2022-09-28T00:53:41.469Z,20.28
2022-09-28T00:54:41.479Z,20.26
2022-09-28T00:55:41.466Z,20.32
2022-09-28T00:56:41.466Z,20.34
2022-09-28T00:57:41.438Z,20.46
2022-09-28T00:58:41.398Z,20.40
2022-09-28T00:59:41.410Z,20.50
2022-09-28T01:00:41.388Z,20.46
2022-09-28T01:01:41.427Z,20.48
2022-09-28T01:02:41.347Z,20.48
2022-09-28T01:03:41.358Z,20.54
2022-09-28T01:04:41.328Z,20.58
2022-09-28T01:05:41.331Z,20.50
2022-09-28T01:06:41.308Z,20.60
2022-09-28T01:07:41.296Z,20.54
2022-09-28T01:08:41.307Z,20.52
2022-09-28T01:09:41.295Z,20.48
2022-09-28T01:10:41.284Z,20.46
2022-09-28T01:11:41.261Z,20.42
2022-09-28T01:12:41.278Z,20.44
2022-09-28T01:13:41.249Z,20.48
2022-09-28T01:14:41.219Z,20.54
2022-09-28T01:15:41.200Z,20.60
2022-09-28T01:16:41.268Z,20.66
2022-09-28T01:17:41.180Z,20.73
2022-09-28T01:18:41.181Z,20.56
2022-09-28T01:19:41.163Z,20.66
2022-09-28T01:20:41.153Z,20.64
2022-09-28T01:21:41.145Z,20.56
2022-09-28T01:22:41.152Z,20.42
2022-09-28T01:23:41.110Z,20.50
2022-09-28T01:24:41.119Z,20.38
2022-09-28T01:25:41.104Z,20.28
2022-09-28T01:26:41.086Z,20.23
2022-09-28T01:27:41.061Z,20.25
2022-09-28T01:28:41.073Z,20.25
2022-09-28T01:29:41.042Z,20.19
2022-09-28T01:30:41.042Z,20.26
2022-09-28T01:31:41.112Z,20.25
2022-09-28T01:32:41.029Z,20.28
2022-09-28T01:33:41.004Z,20.38
2022-09-28T01:34:40.984Z,20.34
2022-09-28T01:35:40.980Z,20.40
2022-09-28T01:36:40.961Z,20.36
2022-09-28T01:37:40.946Z,20.26
2022-09-28T01:38:40.960Z,20.28
2022-09-28T01:39:40.948Z,20.38
2022-09-28T01:40:40.987Z,20.42
2022-09-28T01:41:40.905Z,20.48
2022-09-28T01:42:40.892Z,20.54
2022-09-28T01:43:40.880Z,20.66
2022-09-28T01:44:40.878Z,20.79
2022-09-28T01:45:40.908Z,20.83
2022-09-28T01:46:40.851Z,20.87
2022-09-28T01:47:40.830Z,20.91
2022-09-28T01:48:40.831Z,21.01
2022-09-28T01:49:40.821Z,21.16
2022-09-28T01:50:40.823Z,21.21
2022-09-28T01:51:40.816Z,21.36
2022-09-28T01:52:40.795Z,21.53
2022-09-28T01:53:40.767Z,21.71
2022-09-28T01:54:40.752Z,21.73
2022-09-28T01:55:40.752Z,21.87
2022-09-28T01:56:40.751Z,22.03
2022-09-28T01:57:40.724Z,22.31
2022-09-28T01:58:40.736Z,22.36
2022-09-28T01:59:40.691Z,22.31
2022-09-28T02:00:40.735Z,22.52
2022-09-28T02:01:40.716Z,22.89
2022-09-28T02:02:40.664Z,23.35
2022-09-28T02:03:40.651Z,23.78
2022-09-28T02:04:40.634Z,24.38
2022-09-28T02:05:40.635Z,24.75
2022-09-28T02:06:40.636Z,25.16
2022-09-28T02:07:40.618Z,25.61
2022-09-28T02:08:40.597Z,25.86
2022-09-28T02:09:40.591Z,26.05
2022-09-28T02:10:40.576Z,26.25
2022-09-28T02:11:40.602Z,26.10
2022-09-28T02:12:40.543Z,25.89
2022-09-28T02:13:40.532Z,25.70
2022-09-28T02:14:40.572Z,25.48
2022-09-28T02:15:40.515Z,25.44
2022-09-28T02:16:40.639Z,25.33
2022-09-28T02:17:40.509Z,25.15
2022-09-28T02:18:40.495Z,24.92
2022-09-28T02:19:40.476Z,24.62
2022-09-28T02:20:40.464Z,24.38
2022-09-28T02:21:40.489Z,24.18
2022-09-28T02:22:40.431Z,23.93
2022-09-28T02:23:40.420Z,23.72
2022-09-28T02:24:40.437Z,23.59
2022-09-28T02:25:40.411Z,23.53
2022-09-28T02:26:40.399Z,23.35
2022-09-28T02:27:40.385Z,23.20
2022-09-28T02:28:40.367Z,23.12
2022-09-28T02:29:40.361Z,23.17
2022-09-28T02:30:40.343Z,23.14
2022-09-28T02:31:40.411Z,23.17
2022-09-28T02:32:40.365Z,23.22
2022-09-28T02:33:40.309Z,23.22
2022-09-28T02:34:40.326Z,23.12
2022-09-28T02:35:40.301Z,23.12
2022-09-28T02:36:40.297Z,23.17
2022-09-28T02:37:40.275Z,23.17
2022-09-28T02:38:40.257Z,22.99
2022-09-28T02:39:40.237Z,23.04
2022-09-28T02:40:40.290Z,22.87
2022-09-28T02:41:40.217Z,22.82
2022-09-28T02:42:40.222Z,22.74
2022-09-28T02:43:40.199Z,22.82
2022-09-28T02:44:40.191Z,22.82
2022-09-28T02:45:40.213Z,22.87
2022-09-28T02:46:40.164Z,22.94
2022-09-28T02:47:40.217Z,22.97
2022-09-28T02:48:44.739Z,23.22
2022-09-28T02:49:41.132Z,23.25
2022-09-28T02:50:40.113Z,23.45
2022-09-28T02:51:40.118Z,23.48
2022-09-28T02:52:40.105Z,23.64
2022-09-28T02:53:40.125Z,23.74
2022-09-28T02:54:40.077Z,23.81
2022-09-28T02:55:40.055Z,23.81
2022-09-28T02:56:40.048Z,23.88
2022-09-28T02:57:40.055Z,24.03
2022-09-28T02:58:40.047Z,23.96
2022-09-28T02:59:40.039Z,24.03
2022-09-28T03:00:40.052Z,23.89
2022-09-28T03:01:40.081Z,23.84
2022-09-28T03:02:39.987Z,23.93
2022-09-28T03:03:39.979Z,23.96
2022-09-28T03:04:39.986Z,24.08
2022-09-28T03:05:39.988Z,24.19
2022-09-28T03:06:39.955Z,24.39
2022-09-28T03:07:39.940Z,24.48
2022-09-28T03:08:39.919Z,24.68
2022-09-28T03:09:39.908Z,24.76
2022-09-28T03:10:39.936Z,24.94
2022-09-28T03:11:39.878Z,24.91
2022-09-28T03:12:39.870Z,25.00
2022-09-28T03:13:39.858Z,25.07
2022-09-28T03:14:39.850Z,25.12
2022-09-28T03:15:39.846Z,25.22
2022-09-28T03:16:39.859Z,25.25
2022-09-28T03:17:39.815Z,25.42
2022-09-28T03:18:39.796Z,25.39
2022-09-28T03:19:39.792Z,25.58
2022-09-28T03:20:39.792Z,25.55
2022-09-28T03:21:39.757Z,25.64
2022-09-28T03:22:39.758Z,25.88
2022-09-28T03:23:39.749Z,25.89
2022-09-28T03:24:39.731Z,25.94
2022-09-28T03:25:39.725Z,25.92
2022-09-28T03:26:39.737Z,25.89
2022-09-28T03:27:39.707Z,26.23
2022-09-28T03:28:39.700Z,26.26
2022-09-28T03:29:39.669Z,26.17
2022-09-28T03:30:39.659Z,26.03
2022-09-28T03:31:39.715Z,25.89
2022-09-28T03:32:39.638Z,25.80
2022-09-28T03:33:39.631Z,25.65
2022-09-28T03:34:39.620Z,25.70
2022-09-28T03:35:39.607Z,25.78
2022-09-28T03:36:39.618Z,25.41
2022-09-28T03:37:39.600Z,25.15
2022-09-28T03:38:39.570Z,25.13
2022-09-28T03:39:39.561Z,25.10
2022-09-28T03:40:39.677Z,25.15
2022-09-28T03:41:39.561Z,25.21
2022-09-28T03:42:39.533Z,25.41
2022-09-28T03:43:39.520Z,25.48
2022-09-28T03:44:39.506Z,25.62
2022-09-28T03:45:39.530Z,25.75
2022-09-28T03:46:39.507Z,25.97
2022-09-28T03:47:39.482Z,25.95
2022-09-28T03:48:39.464Z,25.88
2022-09-28T03:49:39.473Z,26.00
2022-09-28T03:50:39.445Z,25.97
2022-09-28T03:51:39.453Z,25.86
2022-09-28T03:52:39.439Z,25.81
2022-09-28T03:53:39.413Z,25.76
2022-09-28T03:54:39.397Z,25.73
2022-09-28T03:55:39.382Z,25.76
2022-09-28T03:56:39.391Z,25.58
2022-09-28T03:57:39.366Z,25.58
2022-09-28T03:58:39.345Z,25.39
2022-09-28T03:59:39.333Z,25.34
2022-09-28T04:00:39.360Z,25.19
2022-09-28T04:01:39.414Z,25.16
2022-09-28T04:02:39.316Z,24.98
2022-09-28T04:03:39.291Z,24.85
2022-09-28T04:04:39.272Z,24.69
2022-09-28T04:05:39.284Z,24.53
2022-09-28T04:06:39.272Z,24.38
2022-09-28T04:07:39.239Z,24.25
2022-09-28T04:08:39.235Z,24.28
2022-09-28T04:09:39.226Z,24.04
2022-09-28T04:10:39.215Z,24.04
2022-09-28T04:12:02.408Z,23.89
2022-09-28T04:12:40.218Z,23.74
2022-09-28T04:13:39.181Z,23.62
2022-09-28T04:14:39.162Z,23.62
2022-09-28T04:15:39.170Z,23.38
2022-09-28T04:16:39.250Z,23.25
2022-09-28T04:17:40.200Z,23.25
2022-09-28T04:18:39.116Z,23.07
2022-09-28T04:19:39.099Z,22.97
2022-09-28T04:20:39.094Z,22.82
2022-09-28T04:21:39.104Z,22.69
2022-09-28T04:22:39.065Z,22.65
2022-09-28T04:23:39.058Z,22.50
2022-09-28T04:24:39.054Z,22.45
2022-09-28T04:25:39.037Z,22.38
2022-09-28T04:26:39.033Z,22.19
2022-09-28T04:27:39.023Z,22.24
2022-09-28T04:28:39.025Z,22.08
2022-09-28T04:29:38.983Z,22.00
2022-09-28T04:30:38.983Z,21.91
2022-09-28T04:31:39.046Z,21.94
2022-09-28T04:32:38.962Z,21.71
2022-09-28T04:33:38.943Z,21.78
2022-09-28T04:34:43.258Z,21.62
2022-09-28T04:35:39.926Z,21.51
2022-09-28T04:36:38.913Z,21.36
2022-09-28T04:37:38.922Z,21.38
2022-09-28T04:38:52.211Z,21.25
2022-09-28T04:39:39.895Z,21.16
2022-09-28T04:40:38.901Z,21.04
2022-09-28T04:41:38.863Z,20.93
2022-09-28T04:42:38.873Z,20.89
2022-09-28T04:43:38.841Z,20.87
2022-09-28T04:44:38.833Z,20.81
2022-09-28T04:45:38.895Z,20.85
2022-09-28T04:46:38.797Z,20.83
2022-09-28T04:47:38.853Z,20.85
2022-09-28T04:48:38.785Z,20.93
2022-09-28T04:49:38.761Z,20.85
2022-09-28T04:50:38.764Z,20.91
2022-09-28T04:51:38.758Z,20.93
2022-09-28T04:52:38.736Z,20.85
2022-09-28T04:53:38.750Z,20.95
2022-09-28T04:54:38.724Z,20.99
2022-09-28T04:55:38.706Z,20.91
2022-09-28T04:56:38.686Z,20.91
2022-09-28T04:57:38.674Z,20.97
2022-09-28T04:58:38.676Z,20.97
2022-09-28T04:59:38.676Z,20.93
2022-09-28T05:00:38.642Z,20.85
2022-09-28T05:01:38.736Z,20.85
2022-09-28T05:02:38.705Z,20.79
2022-09-28T05:03:38.614Z,20.81
2022-09-28T05:04:38.613Z,20.73
2022-09-28T05:05:38.590Z,20.70
2022-09-28T05:06:38.574Z,20.68
2022-09-28T05:07:38.579Z,20.75
2022-09-28T05:08:38.543Z,20.70
2022-09-28T05:09:38.789Z,20.79
2022-09-28T05:10:38.529Z,20.97
2022-09-28T05:11:38.520Z,20.87
2022-09-28T05:12:38.507Z,21.04
2022-09-28T05:13:38.499Z,21.04
2022-09-28T05:14:38.514Z,21.10
2022-09-28T05:15:38.475Z,21.21
2022-09-28T05:16:38.503Z,21.29
2022-09-28T05:17:38.479Z,21.29
2022-09-28T05:18:38.441Z,21.33
2022-09-28T05:19:38.445Z,21.36
2022-09-28T05:20:38.423Z,21.27
2022-09-28T05:21:38.409Z,21.42
2022-09-28T05:22:38.396Z,21.47
2022-09-28T05:23:38.382Z,21.60
2022-09-28T05:24:38.369Z,21.71
2022-09-28T05:25:38.387Z,21.80
2022-09-28T05:26:38.349Z,21.84
2022-09-28T05:27:38.357Z,22.15
2022-09-28T05:28:38.325Z,22.08
2022-09-28T05:29:38.325Z,22.19
2022-09-28T05:30:38.305Z,22.33
2022-09-28T05:31:38.340Z,22.52
2022-09-28T05:32:38.281Z,22.50
2022-09-28T05:33:38.278Z,22.60
2022-09-28T05:34:38.254Z,22.55
2022-09-28T05:35:38.245Z,22.62
2022-09-28T05:36:38.248Z,22.62
2022-09-28T05:37:38.224Z,22.62
2022-09-28T05:38:38.208Z,22.57
2022-09-28T05:39:38.205Z,22.55
2022-09-28T05:40:38.227Z,22.52
2022-09-28T05:41:38.212Z,22.57
2022-09-28T05:42:38.182Z,22.62
2022-09-28T05:43:38.156Z,22.72
2022-09-28T05:44:38.148Z,22.62
2022-09-28T05:45:38.208Z,22.67
2022-09-28T05:46:38.147Z,22.48
2022-09-28T05:47:38.119Z,22.45
2022-09-28T05:48:38.094Z,22.52
2022-09-28T05:49:38.089Z,22.43
2022-09-28T05:50:38.068Z,22.52
2022-09-28T05:51:38.083Z,22.43
2022-09-28T05:52:38.051Z,22.48
2022-09-28T05:53:38.075Z,22.60
2022-09-28T05:54:38.030Z,22.69
2022-09-28T05:55:38.017Z,22.67
2022-09-28T05:56:38.018Z,22.82
2022-09-28T05:57:38.021Z,22.67
2022-09-28T05:58:37.989Z,22.65
2022-09-28T05:59:37.977Z,22.43
2022-09-28T06:00:37.968Z,22.50
2022-09-28T06:01:37.986Z,22.50
2022-09-28T06:02:38.002Z,22.69
2022-09-28T06:03:37.937Z,22.74
2022-09-28T06:04:37.926Z,22.84
2022-09-28T06:05:37.911Z,23.02
2022-09-28T06:06:37.937Z,23.32
2022-09-28T06:07:37.882Z,23.40
2022-09-28T06:08:37.878Z,23.59
2022-09-28T06:09:37.870Z,23.68
2022-09-28T06:10:37.859Z,23.80
2022-09-28T06:11:37.840Z,24.08
2022-09-28T06:12:37.819Z,24.17
2022-09-28T06:13:37.836Z,24.18
2022-09-28T06:14:37.808Z,24.19
2022-09-28T06:15:37.795Z,24.22
2022-09-28T06:16:43.025Z,24.15
2022-09-28T06:17:38.806Z,24.14
2022-09-28T06:18:37.776Z,24.31
2022-09-28T06:19:37.768Z,24.33
2022-09-28T06:20:37.739Z,24.33
2022-09-28T06:21:37.735Z,24.43
2022-09-28T06:22:37.758Z,24.52
2022-09-28T06:23:37.707Z,24.60
2022-09-28T06:24:37.719Z,24.52
2022-09-28T06:25:37.678Z,24.65
2022-09-28T06:26:37.678Z,24.66
2022-09-28T06:27:37.675Z,24.62
2022-09-28T06:28:37.655Z,24.63
2022-09-28T06:29:37.661Z,24.56
2022-09-28T06:30:37.707Z,24.49
2022-09-28T06:31:37.608Z,24.46
2022-09-28T06:32:37.608Z,24.46
2022-09-28T06:33:37.592Z,24.24
2022-09-28T06:34:37.579Z,24.19
2022-09-28T06:35:37.588Z,24.17
2022-09-28T06:36:37.581Z,24.01
2022-09-28T06:37:37.563Z,24.08
2022-09-28T06:38:37.537Z,24.24
2022-09-28T06:39:37.545Z,24.24
2022-09-28T06:40:37.559Z,24.32
2022-09-28T06:41:37.497Z,24.50
2022-09-28T06:42:37.512Z,24.75
2022-09-28T06:43:37.491Z,25.19
2022-09-28T06:44:37.477Z,25.61
2022-09-28T06:45:37.490Z,25.99
2022-09-28T06:46:37.501Z,26.07
2022-09-28T06:47:37.442Z,25.95
2022-09-28T06:48:37.420Z,26.03
2022-09-28T06:49:37.439Z,26.07
2022-09-28T06:50:37.649Z,26.25
2022-09-28T06:51:37.417Z,26.25
2022-09-28T06:52:37.367Z,26.30
2022-09-28T06:53:37.370Z,26.15
2022-09-28T06:54:37.348Z,26.10
2022-09-28T06:55:37.399Z,26.00
2022-09-28T06:56:37.328Z,25.97
2022-09-28T06:57:37.329Z,25.80
2022-09-28T06:58:37.346Z,25.99
2022-09-28T06:59:37.299Z,25.84
2022-09-28T07:00:37.283Z,25.76
2022-09-28T07:01:37.356Z,25.92
2022-09-28T07:02:37.333Z,26.00
2022-09-28T07:03:37.237Z,26.05
2022-09-28T07:04:37.233Z,26.17
2022-09-28T07:05:37.243Z,26.20
2022-09-28T07:06:37.235Z,26.23
2022-09-28T07:07:37.221Z,26.75
2022-09-28T07:08:37.215Z,27.92
2022-09-28T07:09:42.653Z,28.72
2022-09-28T07:10:38.173Z,29.59
2022-09-28T07:11:37.173Z,30.27
2022-09-28T07:12:37.193Z,31.10
2022-09-28T07:13:49.495Z,31.47
2022-09-28T07:14:47.416Z,32.12
2022-09-28T07:15:38.157Z,33.10
2022-09-28T07:17:05.104Z,34.40
2022-09-28T07:17:53.906Z,36.40
2022-09-28T07:18:38.085Z,38.88
2022-09-28T07:19:37.063Z,41.45
2022-09-28T07:20:47.528Z,42.84
2022-09-28T07:21:38.073Z,44.06
2022-09-28T07:22:42.868Z,44.81
2022-09-28T07:23:48.754Z,47.11
2022-09-28T07:24:38.003Z,49.94
2022-09-28T07:25:36.995Z,52.50
2022-09-28T07:26:36.984Z,55.37
2022-09-28T07:27:37.002Z,58.45
2022-09-28T07:28:36.969Z,61.35
2022-09-28T07:29:36.957Z,66.02
2022-09-28T07:30:37.038Z,68.78
2022-09-28T07:31:36.944Z,71.22
2022-09-28T07:32:36.939Z,73.72
2022-09-28T07:33:36.905Z,76.54
2022-09-28T07:34:36.896Z,78.40
2022-09-28T07:35:36.876Z,79.06
2022-09-28T07:36:36.874Z,82.31
2022-09-28T07:37:36.884Z,85.76
2022-09-28T07:38:36.843Z,89.69
2022-09-28T07:39:36.848Z,94.85
2022-09-28T07:40:36.869Z,98.38
2022-09-28T07:41:36.815Z,103.21
2022-09-28T07:42:36.804Z,106.07
2022-09-28T07:43:36.801Z,109.31
2022-09-28T07:44:36.782Z,113.98
2022-09-28T07:45:36.815Z,118.73
2022-09-28T07:46:36.755Z,122.10
2022-09-28T07:47:36.765Z,123.44
2022-09-28T07:48:36.754Z,127.66
2022-09-28T07:49:36.719Z,129.43
2022-09-28T07:50:36.717Z,131.86
2022-09-28T07:51:36.717Z,133.12
2022-09-28T07:52:36.682Z,130.84
2022-09-28T07:53:36.685Z,129.03
2022-09-28T07:54:36.680Z,127.66
2022-09-28T07:55:36.647Z,126.69
2022-09-28T07:56:36.649Z,125.00
2022-09-28T07:57:36.648Z,124.26
2022-09-28T07:58:36.677Z,124.35
2022-09-28T07:59:36.606Z,129.73
2022-09-28T08:00:36.619Z,129.53
2022-09-28T08:01:36.631Z,127.75
2022-09-28T08:02:36.613Z,126.89
2022-09-28T08:03:36.582Z,127.56
2022-09-28T08:04:36.550Z,127.66
2022-09-28T08:05:36.539Z,127.08
2022-09-28T08:06:36.538Z,124.08
2022-09-28T08:07:36.517Z,121.83
2022-09-28T08:08:36.527Z,119.58
2022-09-28T08:09:36.520Z,118.56
2022-09-28T08:10:36.552Z,117.98
2022-09-28T08:11:36.469Z,124.81
2022-09-28T08:12:36.461Z,132.28
2022-09-28T08:13:36.456Z,137.47
2022-09-28T08:14:36.431Z,137.69
2022-09-28T08:15:36.434Z,136.80
2022-09-28T08:17:36.399Z,138.60
2022-09-28T08:18:36.399Z,141.52
2022-09-28T08:19:36.385Z,143.09
2022-09-28T08:20:36.402Z,142.24
2022-09-28T08:21:36.360Z,142.60
2022-09-28T08:22:36.341Z,145.56
2022-09-28T08:23:36.352Z,149.18
2022-09-28T08:24:36.328Z,153.40
2022-09-28T08:25:36.321Z,154.67
2022-09-28T08:26:36.336Z,161.50
2022-09-28T08:27:36.306Z,164.83
2022-09-28T08:28:36.294Z,171.56
2022-09-28T08:29:36.267Z,176.23
2022-09-28T08:30:36.275Z,179.05
2022-09-28T08:31:36.263Z,181.95
2022-09-28T08:32:36.225Z,185.36
2022-09-28T08:33:36.230Z,185.57
2022-09-28T08:34:36.215Z,186.50
2022-09-28T08:35:36.192Z,187.34
2022-09-28T08:36:36.224Z,189.60
2022-09-28T08:37:36.172Z,191.80
2022-09-28T08:38:36.152Z,194.05
2022-09-28T08:39:36.153Z,195.08
2022-09-28T08:40:36.155Z,196.35
2022-09-28T08:41:36.144Z,195.77
2022-09-28T08:42:36.122Z,194.74
2022-09-28T08:43:36.114Z,191.91
2022-09-28T08:44:36.111Z,187.87
2022-09-28T08:45:36.200Z,185.14
2022-09-28T08:46:36.128Z,185.57
2022-09-28T08:47:36.061Z,183.54
2022-09-28T08:48:36.045Z,177.91
2022-09-28T08:49:36.353Z,173.15
2022-09-28T08:50:36.012Z,175.13
2022-09-28T08:51:36.000Z,182.74
2022-09-28T08:52:36.024Z,185.55
2022-09-28T08:53:36.006Z,189.05
2022-09-28T08:54:35.984Z,191.35
2022-09-28T08:55:35.955Z,191.13
2022-09-28T08:56:35.960Z,189.38
2022-09-28T08:57:35.968Z,185.87
2022-09-28T08:58:35.945Z,185.16
2022-09-28T08:59:35.934Z,183.74
2022-09-28T09:00:35.903Z,179.43
2022-09-28T09:01:35.962Z,177.72
2022-09-28T09:02:35.929Z,177.35
2022-09-28T09:03:35.870Z,178.86
2022-09-28T09:04:35.866Z,182.74
2022-09-28T09:05:35.850Z,186.39
2022-09-28T09:06:35.847Z,189.71
2022-09-28T09:07:35.825Z,194.51
2022-09-28T09:08:35.826Z,194.62
2022-09-28T09:09:35.805Z,194.05
2022-09-28T09:10:35.781Z,194.74
2022-09-28T09:11:35.794Z,193.82
2022-09-28T09:12:35.777Z,193.37
2022-09-28T09:13:35.765Z,196.47
2022-09-28T09:14:35.758Z,199.92
2022-09-28T09:15:35.736Z,201.62
2022-09-28T09:16:35.780Z,204.62
2022-09-28T09:17:35.695Z,209.81
2022-09-28T09:18:35.706Z,218.26
2022-09-28T09:19:35.692Z,215.84
2022-09-28T09:20:35.675Z,214.86
2022-09-28T09:21:35.657Z,217.98
2022-09-28T09:22:35.648Z,224.34
2022-09-28T09:23:35.648Z,226.33
2022-09-28T09:24:35.638Z,231.73
2022-09-28T09:25:38.509Z,231.89
2022-09-28T09:26:35.618Z,235.19
2022-09-28T09:27:35.582Z,238.93
2022-09-28T09:28:35.620Z,240.49
2022-09-28T09:29:35.567Z,244.59
2022-09-28T09:30:35.596Z,244.59
2022-09-28T09:31:35.538Z,244.95
2022-09-28T09:32:35.549Z,246.04
2022-09-28T09:33:35.549Z,243.69
2022-09-28T09:34:35.518Z,240.67
2022-09-28T09:35:35.516Z,242.79
2022-09-28T09:36:35.490Z,237.73
2022-09-28T09:37:35.470Z,237.05
2022-09-28T09:38:35.482Z,238.24
2022-09-28T09:39:35.470Z,237.22
2022-09-28T09:40:35.606Z,237.73
2022-09-28T09:41:35.442Z,238.93
2022-09-28T09:42:35.444Z,237.05
2022-09-28T09:43:35.411Z,234.36
2022-09-28T09:44:35.399Z,235.02
2022-09-28T09:45:35.556Z,235.19
2022-09-28T09:46:35.373Z,234.03
2022-09-28T09:47:35.358Z,232.22
2022-09-28T09:48:35.360Z,233.53
2022-09-28T09:49:35.331Z,237.05
2022-09-28T09:50:35.326Z,239.45
2022-09-28T09:51:35.352Z,243.15
2022-09-28T09:52:36.970Z,243.87
2022-09-28T09:53:37.764Z,241.02
2022-09-28T09:54:35.321Z,236.37
2022-09-28T09:55:35.302Z,237.22
2022-09-28T09:56:35.269Z,237.90
2022-09-28T09:57:35.258Z,235.19
2022-09-28T09:58:35.244Z,238.41
2022-09-28T09:59:35.222Z,238.59
2022-09-28T10:00:35.214Z,240.67
2022-09-28T10:01:35.336Z,246.04
2022-09-28T10:02:35.249Z,248.07
2022-09-28T10:03:35.171Z,252.43
2022-09-28T10:04:35.171Z,255.75
2022-09-28T10:05:35.155Z,257.95
2022-09-28T10:06:35.166Z,257.95
2022-09-28T10:07:35.171Z,257.95
2022-09-28T10:08:35.121Z,258.76
2022-09-28T10:09:35.102Z,259.16
2022-09-28T10:10:35.111Z,259.36
2022-09-28T10:11:35.123Z,256.75
2022-09-28T10:12:35.080Z,258.55
2022-09-28T10:13:35.076Z,263.92
2022-09-28T10:14:35.073Z,264.55
2022-09-28T10:15:35.032Z,266.26
2022-09-28T10:16:35.082Z,271.06
2022-09-28T10:17:35.033Z,273.08
2022-09-28T10:18:35.012Z,273.98
2022-09-28T10:19:34.983Z,280.49
2022-09-28T10:20:34.989Z,277.43
2022-09-28T10:21:34.970Z,276.50
2022-09-28T10:22:34.969Z,278.36
2022-09-28T10:23:34.987Z,282.17
2022-09-28T10:24:34.947Z,285.09
2022-09-28T10:25:34.913Z,280.73
2022-09-28T10:26:34.904Z,280.73
2022-09-28T10:27:34.905Z,277.66
2022-09-28T10:28:34.934Z,273.98
2022-09-28T10:29:34.886Z,274.21
2022-09-28T10:30:34.897Z,274.21
2022-09-28T10:31:34.858Z,273.76
2022-09-28T10:32:34.843Z,275.35
2022-09-28T10:33:34.865Z,278.13
2022-09-28T10:34:34.838Z,286.82
2022-09-28T10:35:34.807Z,289.84
2022-09-28T10:36:34.799Z,291.37
2022-09-28T10:37:34.808Z,299.01
2022-09-28T10:38:34.763Z,299.28
2022-09-28T10:39:34.787Z,299.83
2022-09-28T10:40:34.810Z,304.24
2022-09-28T10:41:34.728Z,306.21
2022-09-28T10:42:34.736Z,302.57
2022-09-28T10:43:34.719Z,305.36
2022-09-28T10:44:34.724Z,302.85
2022-09-28T10:45:34.683Z,306.21
2022-09-28T10:46:34.758Z,302.02
2022-09-28T10:47:34.664Z,300.10
2022-09-28T10:48:34.665Z,296.33
2022-09-28T10:49:34.658Z,293.70
2022-09-28T10:50:34.677Z,290.35
2022-09-28T10:51:34.614Z,287.82
2022-09-28T10:52:34.617Z,289.58
2022-09-28T10:53:34.600Z,291.63
2022-09-28T10:54:34.603Z,294.48
2022-09-28T10:55:34.571Z,296.33
2022-09-28T10:56:34.563Z,292.14
2022-09-28T10:57:34.568Z,295.54
2022-09-28T10:58:34.539Z,295.54
2022-09-28T10:59:34.537Z,294.48
2022-09-28T11:00:34.518Z,291.88
2022-09-28T11:01:34.565Z,291.63
2022-09-28T11:02:36.187Z,290.09
2022-09-28T11:03:34.502Z,288.32
2022-09-28T11:04:34.491Z,292.66
2022-09-28T11:05:34.449Z,294.22
2022-09-28T11:06:34.480Z,300.92
2022-09-28T11:07:34.455Z,299.83
2022-09-28T11:08:34.428Z,298.47
2022-09-28T11:09:34.409Z,301.19
2022-09-28T11:10:34.423Z,303.40
2022-09-28T11:11:34.391Z,302.57
2022-09-28T11:12:34.394Z,305.08
2022-09-28T11:13:34.387Z,304.24
2022-09-28T11:14:37.225Z,301.19
2022-09-28T11:15:35.346Z,299.83
2022-09-28T11:16:34.505Z,297.40
2022-09-28T11:17:34.320Z,295.27
2022-09-28T11:18:34.318Z,296.60
2022-09-28T11:19:34.323Z,297.13
2022-09-28T11:20:34.305Z,302.57
2022-09-28T11:21:34.277Z,303.68
2022-09-28T11:22:34.261Z,301.19
2022-09-28T11:23:34.258Z,299.28
2022-09-28T11:24:34.230Z,296.86
2022-09-28T11:25:34.234Z,300.64
2022-09-28T11:26:34.245Z,305.93
2022-09-28T11:27:34.214Z,313.18
2022-09-28T11:28:34.198Z,317.08
2022-09-28T11:29:34.222Z,316.47
2022-09-28T11:30:34.236Z,312.88
2022-09-28T11:31:34.170Z,318.30
2022-09-28T11:32:34.152Z,318.00
2022-09-28T11:33:34.134Z,318.92
2022-09-28T11:34:57.580Z,319.53
2022-09-28T11:35:35.133Z,316.47
2022-09-28T11:36:34.102Z,315.87
2022-09-28T11:37:34.091Z,313.77
2022-09-28T11:38:34.090Z,315.57
2022-09-28T11:39:34.067Z,314.37
2022-09-28T11:40:34.113Z,319.84
2022-09-28T11:41:34.068Z,324.23
2022-09-28T11:42:34.044Z,329.73
2022-09-28T11:43:34.022Z,334.40
2022-09-28T11:44:34.008Z,338.51
2022-09-28T11:45:34.012Z,338.51
2022-09-28T11:46:34.105Z,334.06
2022-09-28T11:47:33.973Z,328.75
2022-09-28T11:48:33.965Z,333.05
2022-09-28T11:49:33.954Z,329.08
2022-09-28T11:50:33.934Z,328.75
2022-09-28T11:51:33.929Z,323.28
2022-09-28T11:52:33.966Z,321.08
2022-09-28T11:53:33.906Z,320.46
2022-09-28T11:54:33.904Z,319.23
2022-09-28T11:55:33.896Z,319.53
2022-09-28T11:56:33.904Z,318.00
2022-09-28T11:57:33.918Z,319.23
2022-09-28T11:58:33.886Z,320.46
2022-09-28T11:59:33.841Z,319.23
2022-09-28T12:00:33.823Z,320.15
2022-09-28T12:01:33.812Z,315.87
2022-09-28T12:02:33.940Z,313.77
2022-09-28T12:03:33.954Z,309.95
2022-09-28T12:04:33.773Z,306.21
2022-09-28T12:05:33.777Z,306.21
2022-09-28T12:06:33.747Z,306.21
2022-09-28T12:07:33.748Z,301.19
2022-09-28T12:08:33.760Z,302.29
2022-09-28T12:09:33.720Z,306.78
2022-09-28T12:10:33.714Z,310.82
2022-09-28T12:11:33.691Z,312.58
2022-09-28T12:12:33.678Z,317.08
2022-09-28T12:13:33.698Z,319.23
2022-09-28T12:14:33.646Z,323.28
2022-09-28T12:15:47.211Z,321.71
2022-09-28T12:17:34.697Z,321.40
2022-09-28T12:18:33.619Z,326.15
2022-09-28T12:19:33.630Z,330.39
2022-09-28T12:20:33.582Z,338.17
2022-09-28T12:21:33.666Z,338.51
2022-09-28T12:22:33.566Z,334.74
2022-09-28T12:23:33.551Z,333.39
2022-09-28T12:24:33.559Z,334.74
2022-09-28T12:25:33.566Z,332.72
2022-09-28T12:26:37.197Z,322.65
2022-09-28T12:27:33.513Z,319.23
2022-09-28T12:28:33.499Z,321.40
2022-09-28T12:29:33.497Z,319.23
2022-09-28T12:30:33.507Z,313.47
2022-09-28T12:31:33.483Z,308.79
2022-09-28T12:32:33.456Z,312.29
2022-09-28T12:33:33.441Z,313.77
2022-09-28T12:34:33.435Z,311.70
2022-09-28T12:35:33.481Z,314.37
2022-09-28T12:36:33.391Z,317.39
2022-09-28T12:37:33.399Z,321.71
2022-09-28T12:38:33.384Z,319.84
2022-09-28T12:39:47.257Z,320.15
2022-09-28T12:40:34.401Z,318.92
2022-09-28T12:41:33.346Z,315.27
2022-09-28T12:42:33.394Z,315.57
2022-09-28T12:43:33.330Z,313.77
2022-09-28T12:44:33.312Z,314.97